Time;durP1;ratioP1;P1;durP2;ratioP2;P2;SDS_P1;SDS_P2;PMS_P1;PMS_P2;Temp;Humidity;BMP_temperature;BMP_pressure;BME280_temperature;BME280_humidity;BME280_pressure;Samples;Min_cycle;Max_cycle;Signal;HPM_P1;HPM_P2
2024/03/01 00:00:13;;;;;;;1.60;1.30;;;8.80;98.20;;;;;;4859114;29;20927;-79
2024/03/01 00:02:41;;;;;;;1.53;1.20;;;8.80;98.20;;;;;;4847071;29;20480;-80
2024/03/01 00:05:08;;;;;;;1.53;1.20;;;8.80;98.20;;;;;;4852204;29;20495;-79
2024/03/01 00:07:36;;;;;;;1.60;1.20;;;8.80;98.20;;;;;;4842166;29;20488;-79
2024/03/01 00:10:03;;;;;;;2.63;1.83;;;8.80;98.20;;;;;;4858615;29;20486;-80
2024/03/01 00:12:30;;;;;;;2.17;1.97;;;8.80;98.20;;;;;;4840369;29;20936;-82
2024/03/01 00:14:56;;;;;;;1.50;1.20;;;8.80;98.20;;;;;;4854031;29;20670;-80
2024/03/01 00:17:23;;;;;;;1.60;1.30;;;8.80;98.20;;;;;;4843194;29;21086;-79
2024/03/01 00:19:50;;;;;;;1.60;1.23;;;8.80;98.20;;;;;;4858431;29;20495;-80
2024/03/01 00:22:17;;;;;;;1.57;1.20;;;8.80;98.20;;;;;;4842629;29;20615;-80
2024/03/01 00:24:45;;;;;;;1.57;1.27;;;8.90;98.20;;;;;;4856268;29;21043;-80
2024/03/01 00:27:12;;;;;;;1.60;1.30;;;8.90;98.20;;;;;;4845368;29;21291;-80
2024/03/01 00:29:39;;;;;;;1.60;1.30;;;8.80;98.20;;;;;;4853685;29;20590;-80
2024/03/01 00:32:06;;;;;;;1.50;1.20;;;8.80;98.20;;;;;;4856780;29;20557;-80
2024/03/01 00:34:32;;;;;;;1.50;1.20;;;8.80;98.20;;;;;;4859165;29;20495;-80
2024/03/01 00:36:59;;;;;;;1.50;1.20;;;8.70;98.20;;;;;;4846725;29;20510;-79
2024/03/01 00:39:26;;;;;;;1.50;1.20;;;8.70;98.20;;;;;;4854115;29;20499;-81
2024/03/01 00:41:54;;;;;;;1.57;1.20;;;8.60;98.20;;;;;;4847177;29;20487;-81
2024/03/01 00:44:23;;;;;;;2.47;2.27;;;8.60;98.20;;;;;;4852176;29;20481;-80
2024/03/01 00:46:50;;;;;;;1.80;1.60;;;8.50;98.20;;;;;;4846892;29;20499;-80
2024/03/01 00:49:17;;;;;;;1.60;1.30;;;8.40;98.20;;;;;;4856613;29;20476;-80
2024/03/01 00:51:43;;;;;;;1.57;1.20;;;8.40;98.20;;;;;;4846796;29;20495;-80
2024/03/01 00:54:10;;;;;;;1.50;1.20;;;8.40;98.20;;;;;;4850340;29;20464;-81
2024/03/01 00:56:37;;;;;;;1.60;1.33;;;8.30;98.20;;;;;;4847558;29;20501;-81
2024/03/01 00:59:05;;;;;;;1.50;1.20;;;8.30;98.20;;;;;;4852626;29;20494;-79
2024/03/01 01:01:32;;;;;;;1.83;1.73;;;8.30;98.20;;;;;;4849304;29;20575;-79
2024/03/01 01:03:59;;;;;;;1.57;1.20;;;8.30;98.20;;;;;;4849263;29;20496;-80
2024/03/01 01:06:25;;;;;;;1.50;1.20;;;8.30;98.20;;;;;;4846987;29;20530;-79
2024/03/01 01:08:53;;;;;;;2.23;2.03;;;8.30;98.20;;;;;;4851225;29;21388;-79
2024/03/01 01:11:20;;;;;;;1.60;1.30;;;8.30;98.20;;;;;;4846286;29;20493;-78
2024/03/01 01:13:47;;;;;;;1.50;1.23;;;8.30;98.20;;;;;;4854154;29;20468;-81
2024/03/01 01:16:15;;;;;;;1.60;1.30;;;8.30;98.20;;;;;;4847002;29;21017;-82
2024/03/01 01:18:41;;;;;;;1.53;1.20;;;8.30;98.20;;;;;;4851405;29;20501;-82
2024/03/01 01:21:08;;;;;;;1.53;1.20;;;8.30;98.20;;;;;;4847681;29;20562;-82
2024/03/01 01:23:36;;;;;;;1.57;1.20;;;8.30;98.20;;;;;;4851674;29;20824;-81
2024/03/01 01:26:03;;;;;;;2.20;2.00;;;8.30;98.20;;;;;;4846440;29;20475;-82
2024/03/01 01:28:30;;;;;;;1.57;1.20;;;8.30;98.20;;;;;;4852902;29;21060;-82
2024/03/01 01:30:56;;;;;;;1.60;1.30;;;8.30;98.20;;;;;;4844664;29;20556;-82
2024/03/01 01:33:25;;;;;;;1.57;1.20;;;8.20;98.20;;;;;;4852617;29;20578;-82
2024/03/01 01:35:51;;;;;;;1.50;1.10;;;8.20;98.20;;;;;;4845235;29;20971;-81
2024/03/01 01:38:18;;;;;;;1.57;1.27;;;8.20;98.20;;;;;;4845920;29;20463;-82
2024/03/01 01:40:46;;;;;;;1.53;1.20;;;8.20;98.20;;;;;;4856740;29;20533;-82
2024/03/01 01:43:13;;;;;;;1.50;1.20;;;8.20;98.20;;;;;;4847920;29;20494;-81
2024/03/01 01:45:40;;;;;;;1.60;1.50;;;8.20;98.20;;;;;;4852318;29;20479;-80
2024/03/01 01:48:07;;;;;;;1.57;1.20;;;8.20;98.20;;;;;;4842751;29;20574;-82
2024/03/01 01:50:36;;;;;;;2.07;1.87;;;8.20;98.20;;;;;;4858305;29;20574;-82
2024/03/01 01:53:03;;;;;;;1.60;1.30;;;8.20;98.20;;;;;;4839140;29;20571;-82
2024/03/01 01:55:31;;;;;;;1.80;1.70;;;8.20;98.20;;;;;;4857608;29;20530;-82
2024/03/01 01:57:57;;;;;;;1.50;1.20;;;8.30;98.20;;;;;;4842910;29;20479;-81
2024/03/01 02:00:25;;;;;;;1.50;1.20;;;8.30;98.20;;;;;;4856350;29;20535;-78
2024/03/01 02:02:53;;;;;;;1.60;1.30;;;8.30;98.20;;;;;;4840029;29;20583;-81
2024/03/01 02:05:20;;;;;;;1.57;1.20;;;8.20;98.20;;;;;;4849132;29;20479;-82
2024/03/01 02:07:48;;;;;;;1.53;1.27;;;8.20;98.20;;;;;;4839844;29;20995;-82
2024/03/01 02:10:17;;;;;;;1.60;1.30;;;8.20;98.20;;;;;;4851461;29;20519;-82
2024/03/01 02:12:57;;;;;;;1.73;1.63;;;8.20;98.20;;;;;;4842553;29;20548;-81
2024/03/01 02:15:25;;;;;;;1.57;1.20;;;8.20;98.20;;;;;;4856022;29;20475;-81
2024/03/01 02:17:52;;;;;;;1.60;1.50;;;8.20;98.20;;;;;;4838893;29;20518;-83
2024/03/01 02:20:21;;;;;;;1.60;1.20;;;8.20;98.20;;;;;;4854904;29;20582;-83
2024/03/01 02:22:51;;;;;;;1.60;1.30;;;8.20;98.20;;;;;;4842276;29;20498;-82
2024/03/01 02:25:19;;;;;;;1.50;1.20;;;8.30;98.20;;;;;;4854010;29;20475;-82
2024/03/01 02:27:48;;;;;;;1.53;1.23;;;8.30;98.20;;;;;;4838713;29;20498;-83
2024/03/01 02:30:15;;;;;;;1.60;1.27;;;8.30;98.20;;;;;;4854351;29;20491;-83
2024/03/01 02:32:42;;;;;;;1.57;1.20;;;8.20;98.20;;;;;;4840454;29;20488;-84
2024/03/01 02:35:09;;;;;;;2.83;2.43;;;8.20;98.20;;;;;;4855719;29;20478;-82
2024/03/01 02:37:36;;;;;;;1.53;1.20;;;8.20;98.20;;;;;;4843828;29;20488;-82
2024/03/01 02:40:04;;;;;;;1.53;1.20;;;8.20;98.20;;;;;;4853283;29;20907;-81
2024/03/01 02:42:33;;;;;;;1.57;1.30;;;8.20;98.20;;;;;;4837198;29;20491;-83
2024/03/01 02:45:00;;;;;;;1.60;1.20;;;8.20;98.20;;;;;;4853359;29;20483;-83
2024/03/01 02:47:27;;;;;;;1.53;1.20;;;8.20;98.20;;;;;;4843527;29;20491;-82
2024/03/01 02:49:54;;;;;;;1.57;1.20;;;8.20;98.20;;;;;;4858448;29;20497;-82
2024/03/01 02:52:21;;;;;;;2.67;2.47;;;8.10;98.20;;;;;;4843651;29;21030;-80
2024/03/01 02:54:47;;;;;;;1.50;1.20;;;8.10;98.20;;;;;;4849232;29;20485;-82
2024/03/01 02:57:14;;;;;;;2.07;1.83;;;8.00;98.20;;;;;;4848171;29;20511;-83
2024/03/01 02:59:42;;;;;;;1.60;1.20;;;8.00;98.20;;;;;;4858961;29;20573;-83
2024/03/01 03:02:09;;;;;;;1.60;1.30;;;8.00;98.20;;;;;;4845799;29;20479;-82
2024/03/01 03:04:36;;;;;;;1.50;1.20;;;8.00;98.20;;;;;;4855220;29;20495;-81
2024/03/01 03:07:03;;;;;;;1.57;1.20;;;8.00;98.20;;;;;;4846751;29;20491;-81
2024/03/01 03:09:29;;;;;;;1.50;1.27;;;8.00;98.20;;;;;;4858320;29;20487;-82
2024/03/01 03:11:56;;;;;;;1.57;1.23;;;8.00;98.20;;;;;;4848764;29;21050;-82
2024/03/01 03:14:23;;;;;;;1.80;1.50;;;8.00;98.20;;;;;;4856737;29;20971;-81
2024/03/01 03:16:51;;;;;;;1.70;1.50;;;8.00;98.20;;;;;;4855462;29;20486;-82
2024/03/01 03:19:18;;;;;;;1.57;1.20;;;8.00;98.20;;;;;;4865561;29;20471;-82
2024/03/01 03:21:45;;;;;;;1.50;1.20;;;8.00;98.20;;;;;;4845146;29;20491;-82
2024/03/01 03:24:12;;;;;;;1.60;1.20;;;8.00;98.20;;;;;;4858739;29;20563;-80
2024/03/01 03:26:38;;;;;;;1.50;1.20;;;8.00;98.20;;;;;;4879264;23;20505;-81
2024/03/01 03:29:05;;;;;;;1.50;1.20;;;8.00;98.20;;;;;;4891382;29;20557;-79
2024/03/01 03:31:32;;;;;;;1.50;1.20;;;8.00;98.20;;;;;;4876137;29;20934;-79
2024/03/01 03:34:00;;;;;;;1.57;1.20;;;8.00;98.20;;;;;;4888905;29;20459;-79
2024/03/01 03:36:27;;;;;;;1.53;1.20;;;8.00;98.20;;;;;;4872734;29;20490;-79
2024/03/01 03:38:54;;;;;;;1.50;1.20;;;8.00;98.20;;;;;;4878841;29;20474;-78
2024/03/01 03:41:21;;;;;;;1.53;1.20;;;8.00;98.20;;;;;;4866515;29;20474;-78
2024/03/01 03:43:48;;;;;;;1.53;1.10;;;7.90;98.20;;;;;;4877873;29;20490;-78
2024/03/01 03:46:14;;;;;;;1.60;1.30;;;8.00;98.20;;;;;;4866446;29;20514;-78
2024/03/01 03:48:41;;;;;;;2.80;2.60;;;8.00;98.20;;;;;;4881044;29;20496;-78
2024/03/01 03:51:10;;;;;;;1.60;1.30;;;8.00;98.20;;;;;;4862153;29;20490;-78
2024/03/01 03:53:37;;;;;;;1.53;1.20;;;8.00;98.20;;;;;;4874977;29;20467;-79
2024/03/01 03:56:04;;;;;;;1.53;1.20;;;8.00;98.20;;;;;;4855607;29;20495;-79
2024/03/01 03:58:31;;;;;;;1.60;1.20;;;8.10;98.20;;;;;;4875594;29;20778;-79
2024/03/01 04:00:58;;;;;;;1.60;1.20;;;8.10;98.20;;;;;;4857693;29;23060;-79
2024/03/01 04:03:25;;;;;;;1.53;1.20;;;8.10;98.20;;;;;;4877408;29;20491;-79
2024/03/01 04:05:51;;;;;;;2.13;1.93;;;8.20;98.20;;;;;;4851228;29;20499;-80
2024/03/01 04:08:19;;;;;;;1.60;1.20;;;8.20;98.20;;;;;;4870736;29;20475;-79
2024/03/01 04:10:46;;;;;;;1.50;1.20;;;8.30;98.20;;;;;;4863048;29;20680;-78
2024/03/01 04:13:13;;;;;;;1.53;1.20;;;8.40;98.20;;;;;;4876903;29;20873;-78
2024/03/01 04:15:40;;;;;;;1.50;1.17;;;8.40;98.20;;;;;;4866737;29;20657;-77
2024/03/01 04:18:08;;;;;;;1.53;1.20;;;8.40;98.20;;;;;;4867250;29;20517;-78
2024/03/01 04:20:35;;;;;;;1.50;1.27;;;8.50;98.20;;;;;;4866303;29;20536;-78
2024/03/01 04:23:04;;;;;;;3.00;2.33;;;8.50;98.20;;;;;;4868044;29;20930;-77
2024/03/01 04:25:34;;;;;;;1.50;1.20;;;8.60;98.20;;;;;;4875780;29;20489;-78
2024/03/01 04:28:01;;;;;;;1.53;1.20;;;8.60;98.20;;;;;;4866784;29;21213;-78
2024/03/01 04:30:28;;;;;;;1.53;1.20;;;8.60;98.20;;;;;;4872686;29;20470;-77
2024/03/01 04:32:55;;;;;;;1.57;1.20;;;8.70;98.20;;;;;;4871953;29;20529;-78
2024/03/01 04:35:22;;;;;;;1.53;1.10;;;8.70;98.20;;;;;;4863815;29;20493;-78
2024/03/01 04:37:49;;;;;;;1.60;1.30;;;8.70;98.20;;;;;;4867675;29;20486;-76
2024/03/01 04:40:16;;;;;;;1.60;1.50;;;8.70;98.20;;;;;;4866479;29;20467;-78
2024/03/01 04:42:44;;;;;;;1.73;1.60;;;8.70;98.20;;;;;;4868964;29;21063;-77
2024/03/01 04:45:10;;;;;;;1.60;1.20;;;8.70;98.20;;;;;;4871821;29;20501;-78
2024/03/01 04:47:37;;;;;;;1.60;1.33;;;8.70;98.20;;;;;;4865140;29;20512;-78
2024/03/01 04:50:06;;;;;;;1.50;1.17;;;8.70;98.20;;;;;;4866531;29;20486;-79
2024/03/01 04:52:33;;;;;;;1.53;1.20;;;8.70;98.20;;;;;;4868798;29;20478;-78
2024/03/01 04:55:00;;;;;;;1.57;1.20;;;8.70;98.20;;;;;;4862199;29;20471;-78
2024/03/01 04:57:27;;;;;;;1.53;1.17;;;8.70;98.20;;;;;;4866556;29;20478;-77
2024/03/01 04:59:55;;;;;;;1.77;1.53;;;8.70;98.20;;;;;;4865749;29;20574;-78
2024/03/01 05:02:22;;;;;;;1.53;1.20;;;8.70;98.20;;;;;;4867607;29;20569;-77
2024/03/01 05:04:49;;;;;;;1.50;1.20;;;8.70;98.20;;;;;;4867393;29;20498;-78
2024/03/01 05:07:17;;;;;;;1.53;1.10;;;8.70;98.20;;;;;;4860296;29;20485;-79
2024/03/01 05:09:44;;;;;;;1.53;1.20;;;8.70;98.20;;;;;;4865158;29;20868;-79
2024/03/01 05:12:13;;;;;;;1.57;1.20;;;8.70;98.20;;;;;;4866372;29;20495;-78
2024/03/01 05:14:40;;;;;;;1.93;1.73;;;8.60;98.20;;;;;;4870281;29;20482;-78
2024/03/01 05:17:09;;;;;;;1.60;1.20;;;8.70;98.20;;;;;;4861681;29;20561;-78
2024/03/01 05:19:38;;;;;;;4.87;4.47;;;8.70;98.20;;;;;;4867321;29;20950;-77
2024/03/01 05:22:05;;;;;;;3.97;3.67;;;8.70;98.20;;;;;;4863447;29;20621;-78
2024/03/01 05:24:32;;;;;;;1.60;1.20;;;8.70;98.20;;;;;;4869578;29;20487;-78
2024/03/01 05:26:59;;;;;;;1.60;1.30;;;8.70;98.20;;;;;;4860337;29;20486;-78
2024/03/01 05:29:26;;;;;;;1.60;1.30;;;8.80;98.20;;;;;;4871706;29;20475;-78
2024/03/01 05:31:53;;;;;;;1.57;1.20;;;8.80;98.20;;;;;;4861110;29;20625;-78
2024/03/01 05:34:22;;;;;;;1.60;1.30;;;8.80;98.20;;;;;;4869056;29;20468;-77
2024/03/01 05:36:49;;;;;;;1.60;1.30;;;8.80;98.20;;;;;;4859989;29;20499;-78
2024/03/01 05:39:19;;;;;;;1.57;1.10;;;8.80;98.20;;;;;;4867587;29;20503;-77
2024/03/01 05:41:46;;;;;;;1.57;1.20;;;8.80;98.20;;;;;;4861422;29;20522;-78
2024/03/01 05:44:13;;;;;;;1.60;1.40;;;8.90;98.20;;;;;;4871141;29;20520;-79
2024/03/01 05:46:41;;;;;;;1.57;1.17;;;8.90;98.20;;;;;;4860020;29;20519;-77
2024/03/01 05:49:10;;;;;;;1.53;1.10;;;9.00;98.20;;;;;;4873642;29;20505;-80
2024/03/01 05:51:39;;;;;;;1.60;1.20;;;9.00;98.20;;;;;;4862752;29;20497;-78
2024/03/01 05:54:06;;;;;;;1.50;1.10;;;9.00;98.20;;;;;;4867036;29;20463;-78
2024/03/01 05:56:33;;;;;;;1.60;1.30;;;9.00;98.20;;;;;;4847774;29;20562;-79
2024/03/01 05:58:59;;;;;;;1.57;1.20;;;9.00;98.20;;;;;;4868107;29;20477;-79
2024/03/01 06:01:27;;;;;;;1.53;1.20;;;8.90;98.20;;;;;;4855507;29;20482;-80
2024/03/01 06:03:54;;;;;;;1.50;1.10;;;8.90;98.20;;;;;;4864577;29;20495;-80
2024/03/01 06:06:21;;;;;;;1.60;1.20;;;8.90;98.20;;;;;;4853043;29;20677;-79
2024/03/01 06:08:49;;;;;;;1.60;1.20;;;8.90;98.20;;;;;;4867039;29;21008;-79
2024/03/01 06:11:16;;;;;;;1.60;1.20;;;8.90;98.20;;;;;;4852361;29;20486;-78
2024/03/01 06:13:44;;;;;;;1.57;1.20;;;8.90;98.20;;;;;;4868716;29;21132;-80
2024/03/01 06:16:10;;;;;;;1.60;1.30;;;8.90;98.20;;;;;;4847860;29;21504;-80
2024/03/01 06:18:37;;;;;;;1.53;1.20;;;8.90;98.20;;;;;;4867684;29;20478;-79
2024/03/01 06:21:04;;;;;;;1.57;1.30;;;8.90;98.20;;;;;;4850472;29;20471;-79
2024/03/01 06:23:31;;;;;;;1.57;1.10;;;8.90;98.20;;;;;;4870349;29;20475;-78
2024/03/01 06:25:59;;;;;;;1.53;1.20;;;8.90;98.20;;;;;;4847306;29;20510;-79
2024/03/01 06:28:26;;;;;;;1.53;1.17;;;8.90;98.20;;;;;;4872598;29;20473;-79
2024/03/01 06:30:53;;;;;;;2.00;1.77;;;8.90;98.20;;;;;;4846028;29;20569;-79
2024/03/01 06:33:20;;;;;;;1.50;1.20;;;8.90;98.20;;;;;;4873074;29;20475;-78
2024/03/01 06:35:47;;;;;;;1.50;1.20;;;8.80;98.20;;;;;;4854797;29;20550;-78
2024/03/01 06:38:13;;;;;;;1.50;1.10;;;8.80;98.20;;;;;;4874240;29;20481;-78
2024/03/01 06:40:40;;;;;;;1.53;1.17;;;8.80;98.20;;;;;;4856331;29;20471;-78
2024/03/01 06:43:08;;;;;;;1.57;1.13;;;8.80;98.20;;;;;;4862087;29;20498;-77
2024/03/01 06:45:35;;;;;;;1.50;1.20;;;8.80;98.20;;;;;;4856521;29;20491;-78
2024/03/01 06:48:02;;;;;;;1.57;1.10;;;8.80;98.20;;;;;;4857022;29;20488;-79
2024/03/01 06:50:28;;;;;;;1.57;1.23;;;8.80;98.20;;;;;;4854127;29;20475;-78
2024/03/01 06:52:55;;;;;;;1.60;1.20;;;8.70;98.20;;;;;;4861156;29;20904;-79
2024/03/01 06:55:22;;;;;;;1.53;1.10;;;8.70;98.20;;;;;;4855179;29;20470;-78
2024/03/01 06:57:49;;;;;;;1.53;1.10;;;8.70;98.20;;;;;;4859470;29;20507;-78
2024/03/01 07:00:18;;;;;;;1.50;1.10;;;8.70;98.20;;;;;;4848506;29;21652;-78
2024/03/01 07:02:44;;;;;;;1.50;1.13;;;8.70;98.20;;;;;;4856126;29;20494;-78
2024/03/01 07:05:11;;;;;;;1.60;1.20;;;8.60;98.20;;;;;;4848513;29;21304;-77
2024/03/01 07:07:38;;;;;;;1.60;1.13;;;8.60;98.20;;;;;;4851161;29;20561;-77
2024/03/01 07:10:06;;;;;;;1.50;1.10;;;8.60;98.20;;;;;;4851597;29;20906;-77
2024/03/01 07:12:32;;;;;;;1.57;1.20;;;8.60;98.20;;;;;;4853304;29;20495;-77
2024/03/01 07:14:59;;;;;;;1.60;1.23;;;8.60;98.20;;;;;;4851565;29;21015;-77
2024/03/01 07:17:27;;;;;;;1.57;1.20;;;8.60;98.20;;;;;;4848549;29;20493;-77
2024/03/01 07:19:54;;;;;;;1.50;1.10;;;8.60;98.20;;;;;;4852735;29;20475;-77
2024/03/01 07:22:21;;;;;;;1.53;1.20;;;8.60;98.20;;;;;;4853797;29;21199;-77
2024/03/01 07:24:48;;;;;;;1.50;1.20;;;8.60;98.20;;;;;;4853284;29;20510;-77
2024/03/01 07:27:15;;;;;;;1.53;1.20;;;8.70;98.20;;;;;;4853505;29;20498;-77
2024/03/01 07:29:42;;;;;;;1.57;1.20;;;8.70;98.20;;;;;;4856990;29;20482;-77
2024/03/01 07:32:08;;;;;;;1.50;1.20;;;8.70;98.20;;;;;;4850971;29;20486;-77
2024/03/01 07:34:37;;;;;;;1.53;1.20;;;8.70;98.20;;;;;;4856248;29;20539;-77
2024/03/01 07:37:04;;;;;;;1.60;1.20;;;8.70;98.20;;;;;;4851259;29;20563;-77
2024/03/01 07:39:30;;;;;;;1.53;1.20;;;8.70;98.20;;;;;;4858293;29;20869;-77
2024/03/01 07:41:57;;;;;;;1.53;1.10;;;8.70;98.20;;;;;;4849215;29;20485;-77
2024/03/01 07:44:24;;;;;;;1.50;1.20;;;8.60;98.20;;;;;;4856175;29;20471;-77
2024/03/01 07:46:57;;;;;;;1.50;1.20;;;8.60;98.20;;;;;;4849158;29;20532;-78
2024/03/01 07:49:24;;;;;;;1.50;1.20;;;8.60;98.20;;;;;;4858384;29;20479;-77
2024/03/01 07:51:53;;;;;;;1.50;1.10;;;8.50;98.20;;;;;;4850023;29;20490;-77
2024/03/01 07:54:20;;;;;;;1.50;1.20;;;8.50;98.20;;;;;;4858635;29;20475;-77
2024/03/01 07:56:46;;;;;;;1.57;1.20;;;8.60;98.20;;;;;;4848929;29;20498;-77
2024/03/01 07:59:13;;;;;;;1.60;1.37;;;8.60;98.20;;;;;;4857377;29;20479;-77
2024/03/01 08:01:40;;;;;;;1.53;1.17;;;8.70;98.20;;;;;;4848470;29;20488;-77
2024/03/01 08:04:07;;;;;;;1.60;1.20;;;8.80;98.20;;;;;;4857697;29;20486;-76
2024/03/01 08:06:33;;;;;;;1.50;1.10;;;8.80;98.20;;;;;;4850162;29;20517;-77
2024/03/01 08:09:02;;;;;;;1.80;1.60;;;8.90;98.20;;;;;;4858791;29;20954;-77
2024/03/01 08:11:41;;;;;;;1.50;1.10;;;9.00;98.20;;;;;;4848282;29;20554;-77
2024/03/01 08:14:26;;;;;;;1.60;1.27;;;9.00;98.20;;;;;;4858638;29;20554;-77
2024/03/01 08:16:53;;;;;;;1.57;1.10;;;9.10;98.20;;;;;;4849077;29;20546;-78
2024/03/01 08:19:21;;;;;;;1.50;1.10;;;9.20;98.20;;;;;;4861382;29;20471;-77
2024/03/01 08:21:49;;;;;;;1.60;1.10;;;9.20;98.20;;;;;;4850937;29;20550;-77
2024/03/01 08:24:23;;;;;;;1.53;1.03;;;9.30;98.20;;;;;;4856201;29;20475;-77
2024/03/01 08:26:50;;;;;;;1.57;1.20;;;9.40;98.20;;;;;;4850201;29;21020;-77
2024/03/01 08:29:18;;;;;;;1.60;1.20;;;9.40;98.20;;;;;;4857971;29;20479;-77
2024/03/01 08:31:46;;;;;;;1.53;1.10;;;9.40;98.20;;;;;;4849646;29;20502;-77
2024/03/01 08:34:21;;;;;;;1.53;1.10;;;9.30;98.20;;;;;;4857629;29;20551;-74
2024/03/01 08:36:51;;;;;;;1.50;1.13;;;9.30;98.20;;;;;;4850197;29;20493;-74
2024/03/01 08:39:20;;;;;;;1.60;1.20;;;9.40;98.20;;;;;;4858540;29;20532;-75
2024/03/01 08:41:49;;;;;;;1.50;1.10;;;9.50;98.20;;;;;;4850660;29;20551;-73
2024/03/01 08:44:39;;;;;;;1.50;1.10;;;9.50;98.20;;;;;;4856972;29;20471;-79
2024/03/01 08:47:07;;;;;;;1.53;1.20;;;9.50;98.20;;;;;;4854142;29;20475;-79
2024/03/01 08:50:09;;;;;;;1.53;1.10;;;9.50;98.20;;;;;;4861675;29;20467;-79
2024/03/01 08:52:37;;;;;;;4.03;2.97;;;9.50;98.20;;;;;;4858764;29;20581;-82
2024/03/01 08:55:43;;;;;;;1.50;1.10;;;9.50;98.20;;;;;;4854025;29;20514;-78
2024/03/01 08:58:23;;;;;;;1.57;1.10;;;9.60;98.20;;;;;;4858710;29;20510;-78
2024/03/01 09:00:52;;;;;;;1.50;1.10;;;9.70;98.20;;;;;;4843955;29;20857;-78
2024/03/01 09:03:23;;;;;;;1.57;1.03;;;9.80;98.20;;;;;;4863818;29;20483;-79
2024/03/01 09:05:52;;;;;;;1.60;1.20;;;9.80;98.20;;;;;;4845701;29;20861;-79
2024/03/01 09:08:23;;;;;;;1.57;1.10;;;9.80;98.20;;;;;;4869409;29;20506;-78
2024/03/01 09:10:53;;;;;;;1.60;1.10;;;9.70;98.20;;;;;;4848490;29;20565;-78
2024/03/01 09:13:20;;;;;;;1.57;1.17;;;9.70;98.20;;;;;;4869656;29;20482;-79
2024/03/01 09:15:47;;;;;;;1.50;1.10;;;9.70;98.20;;;;;;4848036;29;20491;-79
2024/03/01 09:18:42;;;;;;;1.53;1.10;;;9.80;98.20;;;;;;4870471;29;20624;-78
2024/03/01 09:21:39;;;;;;;1.53;1.10;;;9.90;98.20;;;;;;4844103;29;20482;-79
2024/03/01 09:24:06;;;;;;;1.60;1.10;;;10.10;98.20;;;;;;4872916;29;20479;-78
2024/03/01 09:26:34;;;;;;;1.50;1.03;;;10.30;98.20;;;;;;4859271;29;20493;-80
2024/03/01 09:29:02;;;;;;;1.53;1.10;;;10.60;98.20;;;;;;4864518;29;20548;-80
2024/03/01 09:31:31;;;;;;;1.53;1.10;;;10.70;98.20;;;;;;4851069;29;20490;-81
2024/03/01 09:33:58;;;;;;;1.60;1.17;;;10.90;98.20;;;;;;4862568;29;20467;-82
2024/03/01 09:36:25;;;;;;;1.57;1.10;;;11.10;98.20;;;;;;4849320;29;20547;-77
2024/03/01 09:41:50;;;;;;;1.50;1.00;;;11.40;98.20;;;;;;4861480;29;20473;-85
2024/03/01 09:44:34;;;;;;;1.50;1.00;;;11.50;98.20;;;;;;4865967;29;20621;-86
2024/03/01 09:47:11;;;;;;;1.60;1.10;;;11.60;98.20;;;;;;4852759;29;20489;-84
2024/03/01 09:49:49;;;;;;;1.57;1.00;;;11.70;98.20;;;;;;4854966;29;21205;-85
2024/03/01 09:52:29;;;;;;;1.50;1.00;;;11.70;98.20;;;;;;4846440;29;20586;-81
2024/03/01 09:55:10;;;;;;;1.57;1.07;;;11.70;98.20;;;;;;4850079;29;20827;-84
2024/03/01 09:57:44;;;;;;;1.57;1.10;;;11.90;98.20;;;;;;4846104;29;20689;-84
2024/03/01 10:00:16;;;;;;;1.50;1.00;;;11.90;98.20;;;;;;4845175;29;20857;-82
2024/03/01 10:02:52;;;;;;;1.50;1.00;;;11.90;98.20;;;;;;4839126;29;20998;-86
2024/03/01 10:05:45;;;;;;;1.50;1.00;;;11.80;98.20;;;;;;4849358;29;20506;-82
2024/03/01 10:08:23;;;;;;;1.53;1.00;;;11.70;98.20;;;;;;4838520;29;20590;-87
2024/03/01 10:11:03;;;;;;;1.50;1.00;;;11.60;98.20;;;;;;4843692;29;20490;-83
2024/03/01 10:13:38;;;;;;;1.50;1.00;;;11.60;98.20;;;;;;4854261;29;20467;-84
2024/03/01 10:16:16;;;;;;;1.60;1.10;;;11.70;98.20;;;;;;4840657;29;20466;-85
2024/03/01 10:19:03;;;;;;;2.03;1.83;;;11.80;98.20;;;;;;4851042;29;20559;-85
2024/03/01 10:21:35;;;;;;;1.53;1.00;;;11.90;98.20;;;;;;4843637;29;20572;-84
2024/03/01 10:24:19;;;;;;;1.50;1.10;;;12.00;98.20;;;;;;4851136;29;20499;-86
2024/03/01 10:26:59;;;;;;;1.57;1.10;;;12.00;98.20;;;;;;4852279;29;20494;-85
2024/03/01 10:29:41;;;;;;;1.50;1.00;;;11.90;98.20;;;;;;4858866;29;20499;-83
2024/03/01 10:32:18;;;;;;;1.53;1.00;;;11.80;98.20;;;;;;4842450;29;20923;-82
2024/03/01 10:34:55;;;;;;;1.50;1.00;;;11.90;98.20;;;;;;4848187;29;20481;-81
2024/03/01 10:37:35;;;;;;;1.50;1.00;;;12.00;98.20;;;;;;4846953;29;20483;-81
2024/03/01 10:40:11;;;;;;;1.60;1.00;;;12.10;98.20;;;;;;4851009;29;20881;-81
2024/03/01 10:42:43;;;;;;;1.60;1.10;;;12.20;98.20;;;;;;4849779;29;20553;-80
2024/03/01 10:45:57;;;;;;;1.53;1.00;;;12.20;98.20;;;;;;4852884;29;20479;-79
2024/03/01 10:48:46;;;;;;;1.53;1.07;;;12.20;98.20;;;;;;4846510;29;20478;-83
2024/03/01 10:51:33;;;;;;;1.53;1.00;;;12.20;98.20;;;;;;4845521;29;20504;-82
2024/03/01 10:54:06;;;;;;;1.60;1.00;;;12.20;98.20;;;;;;4850420;29;20907;-81
2024/03/01 10:56:35;;;;;;;1.50;1.00;;;12.30;98.20;;;;;;4851495;29;20489;-81
2024/03/01 10:59:12;;;;;;;1.50;1.00;;;12.40;98.20;;;;;;4864306;29;20487;-83
2024/03/01 11:01:55;;;;;;;1.60;1.00;;;12.80;98.20;;;;;;4849901;29;20509;-83
2024/03/01 11:04:38;;;;;;;1.50;1.00;;;13.10;98.00;;;;;;4857574;29;20495;-84
2024/03/01 11:07:37;;;;;;;1.60;1.10;;;13.30;96.90;;;;;;4850826;29;20503;-83
2024/03/01 11:10:57;;;;;;;1.60;1.10;;;13.40;96.70;;;;;;4855931;29;20503;-80
2024/03/01 11:13:36;;;;;;;1.60;1.00;;;13.40;96.50;;;;;;4844894;29;20495;-83
2024/03/01 11:16:12;;;;;;;1.53;1.00;;;13.50;95.70;;;;;;4843245;29;20774;-82
2024/03/01 11:18:45;;;;;;;1.60;1.10;;;13.70;96.10;;;;;;4860344;29;20467;-81
2024/03/01 11:21:25;;;;;;;1.60;1.10;;;13.80;95.50;;;;;;4846504;29;20514;-82
2024/03/01 11:23:57;;;;;;;1.53;1.00;;;13.70;95.50;;;;;;4857522;29;20483;-82
2024/03/01 11:26:33;;;;;;;1.50;1.00;;;13.60;95.90;;;;;;4841613;29;20488;-85
2024/03/01 11:29:05;;;;;;;1.53;1.00;;;13.50;96.10;;;;;;4847517;29;20537;-82
2024/03/01 11:31:33;;;;;;;1.57;1.00;;;13.40;96.40;;;;;;4845830;29;20565;-83
2024/03/01 11:34:07;;;;;;;1.60;1.00;;;13.30;97.30;;;;;;4861684;29;20479;-83
2024/03/01 11:36:55;;;;;;;1.60;1.00;;;13.40;97.10;;;;;;4848646;29;20509;-85
2024/03/01 11:39:40;;;;;;;1.57;1.00;;;13.70;97.00;;;;;;4856514;29;20774;-85
2024/03/01 11:42:23;;;;;;;1.53;1.00;;;14.00;96.70;;;;;;4845509;29;20578;-83
2024/03/01 11:45:05;;;;;;;1.57;1.00;;;14.20;95.30;;;;;;4851987;29;20559;-84
2024/03/01 11:47:42;;;;;;;1.53;1.00;;;14.10;94.60;;;;;;4850262;29;20534;-85
2024/03/01 11:50:48;;;;;;;1.50;1.00;;;14.30;94.70;;;;;;4852707;29;20495;-83
2024/03/01 11:53:55;;;;;;;1.50;1.00;;;14.50;94.30;;;;;;4840832;29;20490;-83
2024/03/01 11:56:43;;;;;;;1.60;1.00;;;14.40;92.60;;;;;;4830406;29;20591;-85
2024/03/01 11:59:26;;;;;;;1.57;1.03;;;14.40;93.80;;;;;;4849814;29;20501;-83
2024/03/01 12:02:00;;;;;;;1.50;1.00;;;14.40;93.60;;;;;;4836742;29;20527;-84
2024/03/01 12:04:48;;;;;;;1.57;1.00;;;14.30;92.80;;;;;;4850904;29;20586;-80
2024/03/01 12:07:32;;;;;;;1.50;1.00;;;14.30;94.20;;;;;;4840246;29;20579;-82
2024/03/01 12:10:10;;;;;;;1.57;1.00;;;14.10;93.40;;;;;;4851198;29;20502;-82
2024/03/01 12:12:43;;;;;;;1.50;0.90;;;14.00;94.30;;;;;;4842815;29;20574;-81
2024/03/01 12:15:16;;;;;;;1.50;1.00;;;14.10;94.50;;;;;;4845232;29;20505;-83
2024/03/01 12:17:47;;;;;;;1.60;1.20;;;14.00;93.90;;;;;;4839698;29;20504;-85
2024/03/01 12:20:16;;;;;;;1.53;1.10;;;13.90;94.70;;;;;;4852299;29;21085;-82
2024/03/01 12:23:11;;;;;;;1.50;1.00;;;13.90;94.10;;;;;;4842158;29;20932;-83
2024/03/01 12:25:40;;;;;;;1.50;1.00;;;13.80;94.20;;;;;;4851864;29;20475;-84
2024/03/01 12:28:33;;;;;;;3.20;2.90;;;13.60;94.50;;;;;;4837365;29;20586;-84
2024/03/01 12:31:13;;;;;;;1.57;1.00;;;13.40;95.60;;;;;;4846629;29;20499;-83
2024/03/01 12:34:02;;;;;;;1.57;1.03;;;13.40;96.10;;;;;;4859527;29;20578;-82
2024/03/01 12:36:42;;;;;;;1.60;1.10;;;13.40;95.40;;;;;;4836203;29;20494;-82
2024/03/01 12:43:31;;;;;;;;;;;;;;;;;;;;;
2024/03/01 12:46:46;;;;;;;1.53;1.00;;;13.20;95.60;;;;;;4801441;29;20535;-84
2024/03/01 12:49:31;;;;;;;1.50;1.00;;;13.30;95.50;;;;;;4808163;29;20486;-84
2024/03/01 12:52:10;;;;;;;1.50;1.00;;;13.30;95.50;;;;;;4829923;29;20486;-83
2024/03/01 12:54:45;;;;;;;1.50;0.90;;;13.40;94.20;;;;;;4857861;29;20752;-84
2024/03/01 12:57:37;;;;;;;1.50;1.00;;;13.40;95.20;;;;;;4839324;29;21017;-82
2024/03/01 13:00:13;;;;;;;1.50;0.90;;;13.50;94.70;;;;;;4855950;29;20586;-84
2024/03/01 13:03:07;;;;;;;1.60;1.10;;;13.60;95.30;;;;;;4837042;29;20491;-82
2024/03/01 13:05:36;;;;;;;1.50;1.00;;;13.60;93.60;;;;;;4848275;29;20816;-83
2024/03/01 13:08:11;;;;;;;1.60;1.10;;;13.50;94.00;;;;;;4842827;29;20495;-82
2024/03/01 13:10:41;;;;;;;1.50;1.00;;;13.40;94.10;;;;;;4855259;29;20502;-82
2024/03/01 13:13:19;;;;;;;1.50;1.00;;;13.30;94.10;;;;;;4845046;29;20505;-82
2024/03/01 13:15:57;;;;;;;1.50;1.00;;;13.30;94.40;;;;;;4851134;29;20481;-83
2024/03/01 13:18:31;;;;;;;1.50;1.00;;;13.20;94.60;;;;;;4853562;29;20479;-83
2024/03/01 13:21:10;;;;;;;1.50;1.00;;;13.10;95.20;;;;;;4845862;29;20515;-85
2024/03/01 13:23:44;;;;;;;1.60;1.10;;;13.30;95.00;;;;;;4854950;29;20575;-81